sensor_id;sensor_type;location;lat;lon;timestamp;temperature;humidity
28725;DHT22;43472;48.980;9.646;2022-11-20T00:02:00;7.50;99.90
28725;DHT22;43472;48.980;9.646;2022-11-20T00:07:02;7.60;99.90
28725;DHT22;43472;48.980;9.646;2022-11-20T00:12:04;7.30;99.90
28725;DHT22;43472;48.980;9.646;2022-11-20T00:17:05;7.30;99.90
28725;DHT22;43472;48.980;9.646;2022-11-20T00:22:07;7.40;99.90
28725;DHT22;43472;48.980;9.646;2022-11-20T00:27:09;7.50;99.90
28725;DHT22;43472;48.980;9.646;2022-11-20T00:32:11;7.50;99.90
28725;DHT22;43472;48.980;9.646;2022-11-20T00:37:13;7.40;99.90
28725;DHT22;43472;48.980;9.646;2022-11-20T00:42:14;7.60;99.90
28725;DHT22;43472;48.980;9.646;2022-11-20T00:52:19;7.40;99.90
28725;DHT22;43472;48.980;9.646;2022-11-20T00:57:20;7.40;99.90
28725;DHT22;43472;48.980;9.646;2022-11-20T01:02:22;7.30;99.90
28725;DHT22;43472;48.980;9.646;2022-11-20T01:07:24;7.30;99.90
28725;DHT22;43472;48.980;9.646;2022-11-20T01:12:26;7.30;99.90
28725;DHT22;43472;48.980;9.646;2022-11-20T01:17:28;7.30;99.90
28725;DHT22;43472;48.980;9.646;2022-11-20T01:22:29;7.10;99.90
28725;DHT22;43472;48.980;9.646;2022-11-20T01:27:31;7.20;99.90
28725;DHT22;43472;48.980;9.646;2022-11-20T01:32:33;7.40;99.90
28725;DHT22;43472;48.980;9.646;2022-11-20T01:37:35;7.10;99.90
28725;DHT22;43472;48.980;9.646;2022-11-20T01:42:37;7.40;99.90
28725;DHT22;43472;48.980;9.646;2022-11-20T01:47:57;7.50;99.90
28725;DHT22;43472;48.980;9.646;2022-11-20T01:53:05;7.60;99.90
28725;DHT22;43472;48.980;9.646;2022-11-20T01:58:08;7.60;99.90
28725;DHT22;43472;48.980;9.646;2022-11-20T02:03:12;7.50;99.90
28725;DHT22;43472;48.980;9.646;2022-11-20T02:08:15;7.60;99.90
28725;DHT22;43472;48.980;9.646;2022-11-20T02:13:17;7.50;99.90
28725;DHT22;43472;48.980;9.646;2022-11-20T02:18:38;7.60;99.90
28725;DHT22;43472;48.980;9.646;2022-11-20T02:28:55;7.60;99.90
28725;DHT22;43472;48.980;9.646;2022-11-20T02:33:57;7.70;99.90
28725;DHT22;43472;48.980;9.646;2022-11-20T02:38:59;7.70;99.90
28725;DHT22;43472;48.980;9.646;2022-11-20T02:44:01;7.70;99.90
28725;DHT22;43472;48.980;9.646;2022-11-20T02:49:04;7.70;99.90
28725;DHT22;43472;48.980;9.646;2022-11-20T02:54:06;7.60;99.90
28725;DHT22;43472;48.980;9.646;2022-11-20T03:04:10;7.70;99.90
28725;DHT22;43472;48.980;9.646;2022-11-20T03:09:12;7.80;99.90
28725;DHT22;43472;48.980;9.646;2022-11-20T03:14:14;7.80;99.90
28725;DHT22;43472;48.980;9.646;2022-11-20T03:19:16;7.70;99.90
28725;DHT22;43472;48.980;9.646;2022-11-20T03:24:18;7.70;99.90
28725;DHT22;43472;48.980;9.646;2022-11-20T03:29:19;7.70;99.90
28725;DHT22;43472;48.980;9.646;2022-11-20T03:34:22;7.60;99.90
28725;DHT22;43472;48.980;9.646;2022-11-20T03:39:24;7.80;99.90
28725;DHT22;43472;48.980;9.646;2022-11-20T03:44:26;7.70;99.90
28725;DHT22;43472;48.980;9.646;2022-11-20T03:49:28;7.80;99.90
28725;DHT22;43472;48.980;9.646;2022-11-20T03:54:29;7.90;99.90
28725;DHT22;43472;48.980;9.646;2022-11-20T03:59:31;7.70;99.90
28725;DHT22;43472;48.980;9.646;2022-11-20T04:04:33;7.70;99.90
28725;DHT22;43472;48.980;9.646;2022-11-20T04:09:35;7.80;99.90
28725;DHT22;43472;48.980;9.646;2022-11-20T04:14:36;7.80;99.90
28725;DHT22;43472;48.980;9.646;2022-11-20T04:19:38;7.60;99.90
28725;DHT22;43472;48.980;9.646;2022-11-20T04:24:40;7.70;99.90
28725;DHT22;43472;48.980;9.646;2022-11-20T04:29:42;7.80;99.90
28725;DHT22;43472;48.980;9.646;2022-11-20T04:34:44;7.90;99.90
28725;DHT22;43472;48.980;9.646;2022-11-20T04:39:46;7.80;99.90
28725;DHT22;43472;48.980;9.646;2022-11-20T04:44:48;7.90;99.90
28725;DHT22;43472;48.980;9.646;2022-11-20T04:49:50;7.80;99.90
28725;DHT22;43472;48.980;9.646;2022-11-20T04:54:52;8.00;99.90
28725;DHT22;43472;48.980;9.646;2022-11-20T04:59:54;7.60;99.90
28725;DHT22;43472;48.980;9.646;2022-11-20T05:04:56;7.70;99.90
28725;DHT22;43472;48.980;9.646;2022-11-20T05:09:58;7.70;99.90
28725;DHT22;43472;48.980;9.646;2022-11-20T05:15:00;8.40;99.90
28725;DHT22;43472;48.980;9.646;2022-11-20T05:20:02;7.50;99.90
28725;DHT22;43472;48.980;9.646;2022-11-20T05:25:04;7.60;99.90
28725;DHT22;43472;48.980;9.646;2022-11-20T05:30:07;7.60;99.90
28725;DHT22;43472;48.980;9.646;2022-11-20T05:35:08;7.50;99.90
28725;DHT22;43472;48.980;9.646;2022-11-20T05:40:11;7.50;99.90
28725;DHT22;43472;48.980;9.646;2022-11-20T05:45:13;7.50;99.90
28725;DHT22;43472;48.980;9.646;2022-11-20T05:50:15;7.50;99.90
28725;DHT22;43472;48.980;9.646;2022-11-20T05:55:16;7.50;99.90
28725;DHT22;43472;48.980;9.646;2022-11-20T06:00:18;7.30;99.90
28725;DHT22;43472;48.980;9.646;2022-11-20T06:05:20;7.60;99.90
28725;DHT22;43472;48.980;9.646;2022-11-20T06:10:22;7.60;99.90
28725;DHT22;43472;48.980;9.646;2022-11-20T06:15:24;7.50;99.90
28725;DHT22;43472;48.980;9.646;2022-11-20T06:20:25;7.40;99.90
28725;DHT22;43472;48.980;9.646;2022-11-20T06:25:27;7.30;99.90
28725;DHT22;43472;48.980;9.646;2022-11-20T06:30:29;7.40;99.90
28725;DHT22;43472;48.980;9.646;2022-11-20T06:35:30;7.60;99.90
28725;DHT22;43472;48.980;9.646;2022-11-20T06:40:32;7.60;99.90
28725;DHT22;43472;48.980;9.646;2022-11-20T06:45:34;7.50;99.90
28725;DHT22;43472;48.980;9.646;2022-11-20T06:50:37;7.30;99.90
28725;DHT22;43472;48.980;9.646;2022-11-20T06:55:43;7.40;99.90
28725;DHT22;43472;48.980;9.646;2022-11-20T07:00:45;7.50;99.90
28725;DHT22;43472;48.980;9.646;2022-11-20T07:05:47;7.40;99.90
28725;DHT22;43472;48.980;9.646;2022-11-20T07:10:49;7.60;99.90
28725;DHT22;43472;48.980;9.646;2022-11-20T07:15:50;7.50;99.90
28725;DHT22;43472;48.980;9.646;2022-11-20T07:20:52;7.60;99.90
28725;DHT22;43472;48.980;9.646;2022-11-20T07:25:54;7.60;99.90
28725;DHT22;43472;48.980;9.646;2022-11-20T07:30:56;7.60;99.90
28725;DHT22;43472;48.980;9.646;2022-11-20T07:36:01;7.50;99.90
28725;DHT22;43472;48.980;9.646;2022-11-20T07:41:02;7.70;99.90
28725;DHT22;43472;48.980;9.646;2022-11-20T07:46:04;7.70;99.90
28725;DHT22;43472;48.980;9.646;2022-11-20T07:51:06;9.70;99.90
28725;DHT22;43472;48.980;9.646;2022-11-20T07:56:08;7.80;99.90
28725;DHT22;43472;48.980;9.646;2022-11-20T08:01:10;7.90;99.90
28725;DHT22;43472;48.980;9.646;2022-11-20T08:06:12;8.00;99.90
28725;DHT22;43472;48.980;9.646;2022-11-20T08:11:14;7.70;99.90
28725;DHT22;43472;48.980;9.646;2022-11-20T08:16:34;7.80;99.90
28725;DHT22;43472;48.980;9.646;2022-11-20T08:21:36;7.90;99.90
28725;DHT22;43472;48.980;9.646;2022-11-20T08:26:40;7.80;99.90
28725;DHT22;43472;48.980;9.646;2022-11-20T08:31:42;8.00;99.90
28725;DHT22;43472;48.980;9.646;2022-11-20T08:36:44;8.00;99.90
28725;DHT22;43472;48.980;9.646;2022-11-20T08:41:46;8.10;99.90
28725;DHT22;43472;48.980;9.646;2022-11-20T08:46:48;8.30;99.90
28725;DHT22;43472;48.980;9.646;2022-11-20T08:51:50;8.10;99.90
28725;DHT22;43472;48.980;9.646;2022-11-20T08:56:55;8.10;99.90
28725;DHT22;43472;48.980;9.646;2022-11-20T09:01:56;8.40;99.90
28725;DHT22;43472;48.980;9.646;2022-11-20T09:07:00;7.90;99.90
28725;DHT22;43472;48.980;9.646;2022-11-20T09:12:01;7.80;99.90
28725;DHT22;43472;48.980;9.646;2022-11-20T09:17:03;7.80;99.90
28725;DHT22;43472;48.980;9.646;2022-11-20T09:22:05;8.10;99.90
28725;DHT22;43472;48.980;9.646;2022-11-20T09:27:07;8.10;99.90
28725;DHT22;43472;48.980;9.646;2022-11-20T09:32:09;8.10;99.90
28725;DHT22;43472;48.980;9.646;2022-11-20T09:37:11;7.80;99.90
28725;DHT22;43472;48.980;9.646;2022-11-20T09:52:57;7.30;99.90
28725;DHT22;43472;48.980;9.646;2022-11-20T09:58:05;7.60;99.90
28725;DHT22;43472;48.980;9.646;2022-11-20T10:03:18;7.30;99.90
28725;DHT22;43472;48.980;9.646;2022-11-20T10:08:45;7.60;99.90
28725;DHT22;43472;48.980;9.646;2022-11-20T10:24:48;8.10;99.90
28725;DHT22;43472;48.980;9.646;2022-11-20T10:30:02;8.30;99.90
28725;DHT22;43472;48.980;9.646;2022-11-20T10:40:35;8.20;99.90
28725;DHT22;43472;48.980;9.646;2022-11-20T10:56:51;10.90;99.90
28725;DHT22;43472;48.980;9.646;2022-11-20T11:01:52;8.40;99.90
28725;DHT22;43472;48.980;9.646;2022-11-20T11:07:15;8.30;99.90
28725;DHT22;43472;48.980;9.646;2022-11-20T11:12:24;8.50;99.90
28725;DHT22;43472;48.980;9.646;2022-11-20T11:17:30;8.60;99.90
28725;DHT22;43472;48.980;9.646;2022-11-20T11:22:34;8.60;99.90
28725;DHT22;43472;48.980;9.646;2022-11-20T11:27:48;8.40;99.90
28725;DHT22;43472;48.980;9.646;2022-11-20T11:32:51;8.40;99.90
28725;DHT22;43472;48.980;9.646;2022-11-20T11:38:11;8.50;99.90
28725;DHT22;43472;48.980;9.646;2022-11-20T11:43:20;8.20;99.90
28725;DHT22;43472;48.980;9.646;2022-11-20T11:48:41;8.20;99.90
28725;DHT22;43472;48.980;9.646;2022-11-20T11:53:50;8.00;99.90
28725;DHT22;43472;48.980;9.646;2022-11-20T11:58:52;7.80;99.90
28725;DHT22;43472;48.980;9.646;2022-11-20T12:09:38;8.20;99.90
28725;DHT22;43472;48.980;9.646;2022-11-20T12:14:46;8.30;99.90
28725;DHT22;43472;48.980;9.646;2022-11-20T12:19:48;8.20;99.90
28725;DHT22;43472;48.980;9.646;2022-11-20T12:30:03;8.60;99.90
28725;DHT22;43472;48.980;9.646;2022-11-20T12:46:51;8.50;99.90
28725;DHT22;43472;48.980;9.646;2022-11-20T12:57:27;8.70;99.90
28725;DHT22;43472;48.980;9.646;2022-11-20T13:08:00;8.80;99.90
28725;DHT22;43472;48.980;9.646;2022-11-20T13:18:39;10.10;99.90
28725;DHT22;43472;48.980;9.646;2022-11-20T13:23:44;10.00;99.90
28725;DHT22;43472;48.980;9.646;2022-11-20T13:28:47;8.60;99.90
28725;DHT22;43472;48.980;9.646;2022-11-20T13:33:51;9.00;99.90
28725;DHT22;43472;48.980;9.646;2022-11-20T13:38:55;9.00;99.90
28725;DHT22;43472;48.980;9.646;2022-11-20T13:44:25;9.20;99.90
28725;DHT22;43472;48.980;9.646;2022-11-20T13:49:37;9.00;99.90
28725;DHT22;43472;48.980;9.646;2022-11-20T14:00:22;9.10;99.90
28725;DHT22;43472;48.980;9.646;2022-11-20T14:05:25;9.50;99.90
28725;DHT22;43472;48.980;9.646;2022-11-20T14:10:28;9.10;99.90
28725;DHT22;43472;48.980;9.646;2022-11-20T14:15:34;9.20;99.90
28725;DHT22;43472;48.980;9.646;2022-11-20T14:20:42;11.90;99.90
28725;DHT22;43472;48.980;9.646;2022-11-20T14:25:45;11.70;99.90
28725;DHT22;43472;48.980;9.646;2022-11-20T14:30:48;9.80;99.90
28725;DHT22;43472;48.980;9.646;2022-11-20T14:35:59;9.80;99.90
28725;DHT22;43472;48.980;9.646;2022-11-20T14:41:27;9.50;99.90
28725;DHT22;43472;48.980;9.646;2022-11-20T14:46:31;9.30;99.90
28725;DHT22;43472;48.980;9.646;2022-11-20T14:51:39;9.20;99.90
28725;DHT22;43472;48.980;9.646;2022-11-20T14:56:58;9.20;99.90
28725;DHT22;43472;48.980;9.646;2022-11-20T15:02:04;9.20;99.90
28725;DHT22;43472;48.980;9.646;2022-11-20T15:07:07;9.00;99.90
28725;DHT22;43472;48.980;9.646;2022-11-20T15:12:17;9.00;99.90
28725;DHT22;43472;48.980;9.646;2022-11-20T15:17:19;8.70;99.90
28725;DHT22;43472;48.980;9.646;2022-11-20T15:22:20;8.90;99.90
28725;DHT22;43472;48.980;9.646;2022-11-20T15:27:23;8.60;99.90
28725;DHT22;43472;48.980;9.646;2022-11-20T15:32:24;8.40;99.90
28725;DHT22;43472;48.980;9.646;2022-11-20T15:37:26;8.30;99.90
28725;DHT22;43472;48.980;9.646;2022-11-20T15:42:30;8.80;99.90
28725;DHT22;43472;48.980;9.646;2022-11-20T15:47:34;8.00;99.90
28725;DHT22;43472;48.980;9.646;2022-11-20T15:52:36;8.00;99.90
28725;DHT22;43472;48.980;9.646;2022-11-20T15:57:42;8.00;99.90
28725;DHT22;43472;48.980;9.646;2022-11-20T16:02:44;7.60;99.90
28725;DHT22;43472;48.980;9.646;2022-11-20T16:07:46;7.60;99.90
28725;DHT22;43472;48.980;9.646;2022-11-20T16:12:47;7.70;99.90
28725;DHT22;43472;48.980;9.646;2022-11-20T16:18:11;7.70;99.90
28725;DHT22;43472;48.980;9.646;2022-11-20T16:23:13;7.70;99.90
28725;DHT22;43472;48.980;9.646;2022-11-20T16:28:15;7.40;99.90
28725;DHT22;43472;48.980;9.646;2022-11-20T16:33:19;7.70;99.90
28725;DHT22;43472;48.980;9.646;2022-11-20T16:38:21;7.50;99.90
28725;DHT22;43472;48.980;9.646;2022-11-20T16:43:23;7.40;99.90
28725;DHT22;43472;48.980;9.646;2022-11-20T16:48:25;7.40;99.90
28725;DHT22;43472;48.980;9.646;2022-11-20T16:53:28;7.40;99.90
28725;DHT22;43472;48.980;9.646;2022-11-20T16:58:30;7.40;99.90
28725;DHT22;43472;48.980;9.646;2022-11-20T17:03:31;7.70;99.90
28725;DHT22;43472;48.980;9.646;2022-11-20T17:08:33;8.90;99.90
28725;DHT22;43472;48.980;9.646;2022-11-20T17:13:36;7.40;99.90
28725;DHT22;43472;48.980;9.646;2022-11-20T17:18:40;7.50;99.90
28725;DHT22;43472;48.980;9.646;2022-11-20T17:23:43;7.30;99.90
28725;DHT22;43472;48.980;9.646;2022-11-20T17:28:51;7.60;99.90
28725;DHT22;43472;48.980;9.646;2022-11-20T17:33:53;7.60;99.90
28725;DHT22;43472;48.980;9.646;2022-11-20T17:38:55;7.70;99.90
28725;DHT22;43472;48.980;9.646;2022-11-20T17:43:59;7.70;99.90
28725;DHT22;43472;48.980;9.646;2022-11-20T17:49:02;9.10;99.90
28725;DHT22;43472;48.980;9.646;2022-11-20T17:54:05;7.60;99.90
28725;DHT22;43472;48.980;9.646;2022-11-20T17:59:11;8.50;99.90
28725;DHT22;43472;48.980;9.646;2022-11-20T18:04:13;8.70;99.90
28725;DHT22;43472;48.980;9.646;2022-11-20T18:09:15;8.80;99.90
28725;DHT22;43472;48.980;9.646;2022-11-20T18:14:17;7.80;99.90
28725;DHT22;43472;48.980;9.646;2022-11-20T18:19:43;7.60;99.90
28725;DHT22;43472;48.980;9.646;2022-11-20T18:25:05;7.60;99.90
28725;DHT22;43472;48.980;9.646;2022-11-20T18:30:08;7.70;99.90
28725;DHT22;43472;48.980;9.646;2022-11-20T18:35:11;7.80;99.90
28725;DHT22;43472;48.980;9.646;2022-11-20T18:40:12;7.70;99.90
28725;DHT22;43472;48.980;9.646;2022-11-20T18:45:14;7.70;99.90
28725;DHT22;43472;48.980;9.646;2022-11-20T18:50:16;7.70;99.90
28725;DHT22;43472;48.980;9.646;2022-11-20T18:55:19;7.70;99.90
28725;DHT22;43472;48.980;9.646;2022-11-20T19:00:24;7.70;99.90
28725;DHT22;43472;48.980;9.646;2022-11-20T19:05:27;7.60;99.90
28725;DHT22;43472;48.980;9.646;2022-11-20T19:10:28;7.60;99.90
28725;DHT22;43472;48.980;9.646;2022-11-20T19:15:32;7.60;99.90
28725;DHT22;43472;48.980;9.646;2022-11-20T19:20:34;7.70;99.90
28725;DHT22;43472;48.980;9.646;2022-11-20T19:25:36;7.50;99.90
28725;DHT22;43472;48.980;9.646;2022-11-20T19:30:39;7.40;99.90
28725;DHT22;43472;48.980;9.646;2022-11-20T19:35:42;7.10;99.90
28725;DHT22;43472;48.980;9.646;2022-11-20T19:40:43;6.90;99.90
28725;DHT22;43472;48.980;9.646;2022-11-20T19:45:45;7.00;99.90
28725;DHT22;43472;48.980;9.646;2022-11-20T19:50:47;6.90;99.90
28725;DHT22;43472;48.980;9.646;2022-11-20T19:55:56;7.00;99.90
28725;DHT22;43472;48.980;9.646;2022-11-20T20:01:13;7.20;99.90
28725;DHT22;43472;48.980;9.646;2022-11-20T20:06:22;6.80;99.90
28725;DHT22;43472;48.980;9.646;2022-11-20T20:11:25;7.10;99.90
28725;DHT22;43472;48.980;9.646;2022-11-20T20:21:31;7.20;99.90
28725;DHT22;43472;48.980;9.646;2022-11-20T20:26:33;7.20;99.90
28725;DHT22;43472;48.980;9.646;2022-11-20T20:31:35;7.20;99.90
28725;DHT22;43472;48.980;9.646;2022-11-20T20:36:36;7.20;99.90
28725;DHT22;43472;48.980;9.646;2022-11-20T20:41:38;8.00;99.90
28725;DHT22;43472;48.980;9.646;2022-11-20T20:46:40;7.10;99.90
28725;DHT22;43472;48.980;9.646;2022-11-20T20:51:42;6.90;99.90
28725;DHT22;43472;48.980;9.646;2022-11-20T20:56:44;7.00;99.90
28725;DHT22;43472;48.980;9.646;2022-11-20T21:01:45;7.10;99.90
28725;DHT22;43472;48.980;9.646;2022-11-20T21:06:47;6.90;99.90
28725;DHT22;43472;48.980;9.646;2022-11-20T21:11:49;6.90;99.90
28725;DHT22;43472;48.980;9.646;2022-11-20T21:27:05;7.20;99.90
28725;DHT22;43472;48.980;9.646;2022-11-20T21:57:19;6.60;99.90
28725;DHT22;43472;48.980;9.646;2022-11-20T22:07:23;6.60;99.90
28725;DHT22;43472;48.980;9.646;2022-11-20T22:12:25;6.60;99.90
28725;DHT22;43472;48.980;9.646;2022-11-20T22:27:50;6.80;99.90
28725;DHT22;43472;48.980;9.646;2022-11-20T22:32:52;6.90;99.90
28725;DHT22;43472;48.980;9.646;2022-11-20T22:48:01;6.80;99.90
28725;DHT22;43472;48.980;9.646;2022-11-20T22:53:02;6.80;99.90
28725;DHT22;43472;48.980;9.646;2022-11-20T22:58:04;6.80;99.90
28725;DHT22;43472;48.980;9.646;2022-11-20T23:03:06;7.00;99.90
28725;DHT22;43472;48.980;9.646;2022-11-20T23:08:07;6.80;99.90
28725;DHT22;43472;48.980;9.646;2022-11-20T23:13:09;6.70;99.90
28725;DHT22;43472;48.980;9.646;2022-11-20T23:18:11;6.90;99.90
28725;DHT22;43472;48.980;9.646;2022-11-20T23:28:15;6.70;99.90
28725;DHT22;43472;48.980;9.646;2022-11-20T23:33:17;6.60;99.90
28725;DHT22;43472;48.980;9.646;2022-11-20T23:38:18;6.70;99.90
28725;DHT22;43472;48.980;9.646;2022-11-20T23:43:21;6.70;99.90
28725;DHT22;43472;48.980;9.646;2022-11-20T23:48:26;6.60;99.90
28725;DHT22;43472;48.980;9.646;2022-11-20T23:53:29;6.80;99.90
28725;DHT22;43472;48.980;9.646;2022-11-20T23:58:35;6.80;99.90
